createdAt,value
2023-03-25T00:00:18.881Z,17.76
2023-03-25T00:02:48.198Z,17.86
2023-03-25T00:05:17.212Z,17.44
2023-03-25T00:07:45.184Z,17.80
2023-03-25T00:10:13.708Z,17.72
2023-03-25T00:12:40.806Z,17.71
2023-03-25T00:15:09.314Z,17.52
2023-03-25T00:17:36.825Z,17.45
2023-03-25T00:20:07.355Z,17.59
2023-03-25T00:22:33.957Z,17.48
2023-03-25T00:25:00.540Z,17.34
2023-03-25T00:27:27.092Z,17.40
2023-03-25T00:29:53.723Z,17.52
2023-03-25T00:32:21.294Z,17.61
2023-03-25T00:34:47.911Z,17.47
2023-03-25T00:37:17.694Z,17.46
2023-03-25T00:39:45.757Z,17.49
2023-03-25T00:42:16.378Z,17.22
2023-03-25T00:44:42.938Z,17.22
2023-03-25T00:47:11.652Z,17.39
2023-03-25T00:49:38.506Z,17.42
2023-03-25T00:52:05.163Z,17.16
2023-03-25T00:54:34.195Z,17.43
2023-03-25T00:57:01.011Z,17.11
2023-03-25T00:59:27.712Z,17.03
2023-03-25T01:01:56.253Z,17.12
2023-03-25T01:04:23.024Z,16.68
2023-03-25T01:06:52.076Z,16.97
2023-03-25T01:09:19.967Z,16.75
2023-03-25T01:11:48.104Z,16.49
2023-03-25T01:14:18.428Z,16.67
2023-03-25T01:16:45.710Z,16.70
2023-03-25T01:19:13.034Z,16.91
2023-03-25T01:21:40.250Z,16.70
2023-03-25T01:24:08.311Z,16.29
2023-03-25T01:26:34.986Z,16.48
2023-03-25T01:29:01.860Z,16.88
2023-03-25T01:31:30.419Z,16.70
2023-03-25T01:33:57.878Z,16.91
2023-03-25T01:36:25.783Z,16.84
2023-03-25T01:38:52.406Z,16.25
2023-03-25T01:41:19.516Z,16.34
2023-03-25T01:44:08.910Z,16.01
2023-03-25T01:46:39.289Z,15.83
2023-03-25T01:49:10.015Z,15.79
2023-03-25T01:51:40.711Z,15.61
2023-03-25T01:54:08.200Z,15.53
2023-03-25T01:56:41.259Z,15.30
2023-03-25T01:59:11.180Z,15.40
2023-03-25T02:01:37.846Z,15.69
2023-03-25T02:04:10.072Z,15.02
2023-03-25T02:06:50.963Z,15.02
2023-03-25T02:09:20.058Z,14.91
2023-03-25T02:11:47.885Z,14.83
2023-03-25T02:14:22.360Z,14.37
2023-03-25T02:17:07.742Z,14.48
2023-03-25T02:20:08.446Z,14.57
2023-03-25T02:22:56.612Z,14.32
2023-03-25T02:25:36.244Z,14.46
2023-03-25T02:28:12.153Z,13.85
2023-03-25T02:30:41.768Z,14.33
2023-03-25T02:33:32.032Z,14.43
2023-03-25T02:36:31.350Z,14.10
2023-03-25T02:39:33.811Z,14.17
2023-03-25T02:42:18.114Z,14.15
2023-03-25T02:45:10.709Z,14.04
2023-03-25T02:47:51.990Z,14.29
2023-03-25T02:50:27.529Z,14.46
2023-03-25T02:52:59.934Z,14.07
2023-03-25T02:55:30.594Z,14.34
2023-03-25T02:58:00.271Z,13.98
2023-03-25T03:00:28.916Z,13.90
2023-03-25T03:03:01.451Z,13.81
2023-03-25T03:05:31.250Z,14.03
2023-03-25T03:08:22.801Z,14.15
2023-03-25T03:11:07.341Z,14.30
2023-03-25T03:14:18.816Z,14.23
2023-03-25T03:16:58.550Z,13.84
2023-03-25T03:19:55.682Z,13.98
2023-03-25T03:22:34.238Z,14.03
2023-03-25T03:25:22.861Z,13.92
2023-03-25T03:28:36.002Z,13.86
2023-03-25T03:31:48.770Z,13.73
2023-03-25T03:34:26.502Z,13.27
2023-03-25T03:36:57.898Z,13.18
2023-03-25T03:39:31.678Z,12.94
2023-03-25T03:42:08.074Z,12.77
2023-03-25T03:44:39.052Z,12.81
2023-03-25T03:47:18.360Z,13.06
2023-03-25T03:49:57.004Z,13.14
2023-03-25T03:52:47.242Z,13.11
2023-03-25T03:55:21.698Z,13.35
2023-03-25T03:57:56.262Z,13.29
2023-03-25T04:00:28.829Z,13.11
2023-03-25T04:03:14.540Z,13.11
2023-03-25T04:05:48.912Z,12.95
2023-03-25T04:08:37.750Z,12.92
2023-03-25T04:11:21.335Z,13.10
2023-03-25T04:13:52.210Z,13.12
2023-03-25T04:16:20.234Z,13.36
2023-03-25T04:18:48.287Z,13.41
2023-03-25T04:21:25.927Z,13.52
2023-03-25T04:23:52.812Z,13.44
2023-03-25T04:26:19.900Z,13.42
2023-03-25T04:28:47.243Z,13.54
2023-03-25T04:31:17.702Z,13.40
2023-03-25T04:33:48.721Z,13.34
2023-03-25T04:36:15.611Z,13.44
2023-03-25T04:38:45.809Z,13.46
2023-03-25T04:41:14.071Z,13.52
2023-03-25T04:43:41.891Z,13.65
2023-03-25T04:46:13.654Z,13.37
2023-03-25T04:48:41.705Z,13.57
2023-03-25T04:51:10.367Z,13.58
2023-03-25T04:53:37.465Z,13.62
2023-03-25T04:56:05.121Z,13.79
2023-03-25T04:58:32.476Z,13.83
2023-03-25T05:01:06.311Z,13.51
2023-03-25T05:03:33.759Z,13.61
2023-03-25T05:06:01.975Z,13.49
2023-03-25T05:08:29.336Z,13.55
2023-03-25T05:10:56.139Z,13.77
2023-03-25T05:13:22.848Z,13.70
2023-03-25T05:15:56.795Z,13.44
2023-03-25T05:18:23.578Z,13.51
2023-03-25T05:20:51.098Z,13.44
2023-03-25T05:23:19.600Z,13.48
2023-03-25T05:25:48.142Z,13.63
2023-03-25T05:28:15.255Z,13.58
2023-03-25T05:30:45.481Z,13.70
2023-03-25T05:33:18.023Z,13.57
2023-03-25T05:35:45.143Z,13.27
2023-03-25T05:38:14.560Z,13.32
2023-03-25T05:40:42.900Z,13.38
2023-03-25T05:43:23.264Z,13.39
2023-03-25T05:45:50.125Z,13.15
2023-03-25T05:48:16.994Z,13.39
2023-03-25T05:50:43.652Z,13.52
2023-03-25T05:53:15.547Z,13.55
2023-03-25T05:55:42.379Z,13.09
2023-03-25T05:58:09.228Z,13.08
2023-03-25T06:00:37.258Z,13.13
2023-03-25T06:03:07.082Z,12.95
2023-03-25T06:05:33.883Z,13.20
2023-03-25T06:08:01.886Z,13.17
2023-03-25T06:40:02.337Z,13.16
2023-03-25T06:42:29.441Z,13.11
2023-03-25T06:47:31.365Z,13.02
2023-03-25T06:49:57.911Z,13.14
2023-03-25T06:52:24.584Z,13.19
2023-03-25T06:54:51.343Z,12.97
2023-03-25T06:57:18.098Z,12.94
2023-03-25T06:59:44.647Z,13.20
2023-03-25T07:02:19.179Z,13.76
2023-03-25T07:05:05.284Z,14.00
2023-03-25T07:07:31.880Z,14.26
2023-03-25T07:09:58.433Z,14.35
2023-03-25T07:12:25.315Z,14.54
2023-03-25T07:14:55.984Z,14.68
2023-03-25T07:17:23.521Z,15.08
2023-03-25T07:19:50.441Z,15.24
2023-03-25T07:22:17.186Z,15.12
2023-03-25T07:24:44.346Z,15.19
2023-03-25T07:27:14.945Z,15.21
2023-03-25T07:29:41.614Z,15.33
2023-03-25T07:32:08.290Z,15.73
2023-03-25T07:34:35.510Z,15.88
2023-03-25T07:37:02.146Z,15.61
2023-03-25T07:39:28.715Z,15.70
2023-03-25T07:41:55.363Z,15.36
2023-03-25T07:44:21.977Z,15.46
2023-03-25T07:46:49.285Z,15.15
2023-03-25T07:49:17.066Z,15.39
2023-03-25T07:51:44.691Z,15.27
2023-03-25T07:54:11.623Z,15.43
2023-03-25T07:56:38.681Z,15.27
2023-03-25T07:59:05.610Z,15.68
2023-03-25T08:01:32.243Z,16.45
2023-03-25T08:03:58.856Z,16.54
2023-03-25T08:06:25.552Z,16.98
2023-03-25T08:08:54.452Z,17.03
2023-03-25T08:11:22.071Z,17.73
2023-03-25T08:13:48.754Z,17.78
2023-03-25T08:16:15.570Z,18.78
2023-03-25T08:18:45.110Z,18.54
2023-03-25T08:21:13.088Z,17.92
2023-03-25T08:23:39.797Z,18.04
2023-03-25T08:26:06.802Z,18.22
2023-03-25T08:28:33.551Z,17.74
2023-03-25T08:31:02.403Z,17.66
2023-03-25T08:33:34.392Z,17.77
2023-03-25T08:36:01.851Z,18.29
2023-03-25T08:38:34.291Z,18.87
2023-03-25T08:41:01.977Z,18.53
2023-03-25T08:43:28.607Z,18.41
2023-03-25T08:45:55.460Z,18.14
2023-03-25T08:48:23.149Z,18.20
2023-03-25T08:50:49.704Z,18.11
2023-03-25T08:53:16.531Z,19.22
2023-03-25T08:55:43.099Z,19.20
2023-03-25T08:58:09.663Z,19.47
2023-03-25T09:00:37.869Z,19.79
2023-03-25T09:03:05.137Z,20.07
2023-03-25T09:05:37.597Z,19.84
2023-03-25T09:08:04.645Z,19.50
2023-03-25T09:10:31.445Z,18.76
2023-03-25T09:12:58.056Z,18.70
2023-03-25T09:15:24.655Z,19.39
2023-03-25T09:17:51.215Z,19.08
2023-03-25T09:20:18.754Z,18.92
2023-03-25T09:22:45.479Z,19.26
2023-03-25T09:25:12.255Z,18.95
2023-03-25T09:27:38.860Z,18.70
2023-03-25T09:30:06.834Z,18.61
2023-03-25T09:32:34.125Z,18.25
2023-03-25T09:35:00.852Z,18.54
2023-03-25T09:37:27.427Z,18.95
2023-03-25T09:39:54.089Z,18.29
2023-03-25T09:42:47.727Z,18.75
2023-03-25T09:45:36.426Z,18.25
2023-03-25T09:48:29.291Z,18.29
2023-03-25T09:51:01.015Z,18.12
2023-03-25T09:53:30.562Z,18.32
2023-03-25T09:55:58.201Z,18.30
2023-03-25T09:58:34.560Z,18.05
2023-03-25T10:01:15.515Z,18.22
2023-03-25T10:04:19.545Z,18.54
2023-03-25T10:07:21.124Z,19.03
2023-03-25T10:10:18.793Z,19.09
2023-03-25T10:13:09.878Z,18.88
2023-03-25T10:15:53.151Z,18.54
2023-03-25T10:18:22.620Z,18.85
2023-03-25T10:21:07.198Z,18.46
2023-03-25T10:24:15.774Z,17.99
2023-03-25T10:26:55.590Z,18.01
2023-03-25T10:29:31.703Z,18.15
2023-03-25T10:32:03.566Z,17.33
2023-03-25T10:34:38.281Z,18.04
2023-03-25T10:37:10.283Z,18.44
2023-03-25T10:39:40.039Z,18.73
2023-03-25T10:42:21.602Z,18.53
2023-03-25T10:44:48.538Z,19.27
2023-03-25T10:47:33.277Z,19.20
2023-03-25T10:50:00.393Z,18.96
2023-03-25T10:52:27.370Z,18.99
2023-03-25T10:54:56.420Z,19.01
2023-03-25T10:57:28.017Z,19.29
2023-03-25T11:00:18.325Z,19.36
2023-03-25T11:02:46.421Z,19.39
2023-03-25T11:05:18.924Z,19.65
2023-03-25T11:07:53.172Z,19.30
2023-03-25T11:10:29.262Z,19.14
2023-03-25T11:12:58.460Z,18.92
2023-03-25T11:15:30.623Z,18.88
2023-03-25T11:18:04.932Z,18.93
2023-03-25T11:20:40.333Z,18.60
2023-03-25T11:23:19.231Z,18.57
2023-03-25T11:25:46.296Z,18.39
2023-03-25T11:28:44.563Z,17.63
2023-03-25T11:31:11.295Z,17.86
2023-03-25T11:33:39.161Z,17.53
2023-03-25T11:36:21.839Z,17.75
2023-03-25T11:38:56.631Z,18.02
2023-03-25T11:41:24.295Z,17.96
2023-03-25T11:43:50.972Z,18.14
2023-03-25T11:46:21.901Z,18.56
2023-03-25T11:48:50.225Z,17.90
2023-03-25T11:51:24.140Z,18.08
2023-03-25T11:54:09.497Z,17.69
2023-03-25T11:56:40.330Z,18.08
2023-03-25T11:59:27.020Z,18.01
2023-03-25T12:02:19.278Z,17.84
2023-03-25T12:05:02.833Z,17.57
2023-03-25T12:07:30.222Z,17.64
2023-03-25T12:09:59.309Z,18.11
2023-03-25T12:12:38.000Z,17.89
2023-03-25T12:15:27.009Z,17.51
2023-03-25T12:18:05.657Z,18.46
2023-03-25T12:21:04.718Z,18.25
2023-03-25T12:24:18.719Z,17.85
2023-03-25T12:27:08.299Z,17.23
2023-03-25T12:29:40.461Z,17.51
2023-03-25T12:32:16.115Z,17.60
2023-03-25T12:34:54.479Z,17.57
2023-03-25T12:37:33.096Z,17.63
2023-03-25T12:40:24.172Z,17.20
2023-03-25T12:43:05.285Z,17.27
2023-03-25T12:45:34.709Z,18.00
2023-03-25T12:48:09.874Z,18.30
2023-03-25T12:51:09.001Z,18.19
2023-03-25T12:53:56.820Z,18.24
2023-03-25T12:56:23.343Z,18.25
2023-03-25T12:59:02.417Z,18.06
2023-03-25T13:01:49.409Z,18.50
2023-03-25T13:04:19.722Z,18.80
2023-03-25T13:06:51.695Z,18.97
2023-03-25T13:09:41.597Z,18.73
2023-03-25T13:12:14.982Z,18.89
2023-03-25T13:15:27.845Z,17.96
2023-03-25T13:18:12.106Z,17.69
2023-03-25T13:20:49.529Z,18.47
2023-03-25T13:23:23.381Z,18.43
2023-03-25T13:25:57.661Z,18.26
2023-03-25T13:28:38.289Z,18.07
2023-03-25T13:31:08.389Z,18.21
2023-03-25T13:33:40.791Z,18.27
2023-03-25T13:36:29.637Z,17.56
2023-03-25T13:39:21.924Z,17.03
2023-03-25T13:41:56.840Z,17.39
2023-03-25T13:44:35.998Z,17.45
2023-03-25T13:47:30.327Z,17.07
2023-03-25T13:50:20.503Z,16.77
2023-03-25T13:52:54.136Z,17.56
2023-03-25T13:55:26.665Z,17.82
2023-03-25T13:58:27.042Z,18.16
2023-03-25T14:00:56.435Z,17.57
2023-03-25T14:03:54.823Z,17.76
2023-03-25T14:06:24.432Z,16.97
2023-03-25T14:09:07.838Z,16.70
2023-03-25T14:11:46.696Z,16.50
2023-03-25T14:14:18.177Z,16.58
2023-03-25T14:16:49.142Z,16.33
2023-03-25T14:19:20.578Z,16.30
2023-03-25T14:21:50.152Z,16.32
2023-03-25T14:24:26.370Z,16.10
2023-03-25T14:27:00.047Z,16.01
2023-03-25T14:29:34.422Z,16.46
2023-03-25T14:32:17.623Z,15.98
2023-03-25T14:34:47.235Z,16.37
2023-03-25T14:37:26.053Z,16.26
2023-03-25T14:39:55.133Z,16.58
2023-03-25T14:42:21.631Z,16.48
2023-03-25T14:44:54.457Z,16.35
2023-03-25T14:47:34.032Z,16.82
2023-03-25T14:50:22.237Z,16.83
2023-03-25T14:52:52.891Z,16.57
2023-03-25T14:55:31.814Z,16.72
2023-03-25T14:58:02.499Z,17.03
2023-03-25T15:00:34.195Z,16.77
2023-03-25T15:03:11.036Z,17.18
2023-03-25T15:05:39.693Z,16.69
2023-03-25T15:08:06.785Z,16.74
2023-03-25T15:10:49.830Z,16.77
2023-03-25T15:13:32.650Z,16.83
2023-03-25T15:16:03.613Z,16.23
2023-03-25T15:18:36.274Z,16.33
2023-03-25T15:21:08.574Z,16.67
2023-03-25T15:23:49.211Z,16.51
2023-03-25T15:26:18.765Z,15.99
2023-03-25T15:29:07.271Z,16.03
2023-03-25T15:31:42.407Z,16.07
2023-03-25T15:34:32.899Z,15.58
2023-03-25T15:37:17.956Z,15.53
2023-03-25T15:40:02.307Z,15.65
2023-03-25T15:42:47.409Z,15.87
2023-03-25T15:45:51.766Z,15.59
2023-03-25T15:48:21.066Z,16.13
2023-03-25T15:51:39.123Z,15.77
2023-03-25T15:54:28.006Z,15.99
2023-03-25T15:57:01.213Z,15.36
2023-03-25T15:59:55.601Z,14.97
2023-03-25T16:02:37.091Z,15.45
2023-03-25T16:05:05.080Z,15.33
2023-03-25T16:07:34.183Z,15.36
2023-03-25T16:10:20.884Z,15.54
2023-03-25T16:12:50.086Z,15.12
2023-03-25T16:15:22.710Z,15.47
2023-03-25T16:17:50.565Z,15.14
2023-03-25T16:20:25.924Z,15.21
2023-03-25T16:22:59.517Z,15.24
2023-03-25T16:25:38.251Z,15.04
2023-03-25T16:28:17.234Z,15.34
2023-03-25T16:33:58.678Z,15.27
2023-03-25T16:36:25.893Z,15.22
2023-03-25T16:38:52.909Z,15.29
2023-03-25T16:41:19.725Z,14.97
2023-03-25T16:43:46.423Z,14.66
2023-03-25T16:46:15.858Z,14.79
2023-03-25T16:48:49.250Z,15.09
2023-03-25T16:51:36.113Z,15.07
2023-03-25T16:54:09.709Z,15.23
2023-03-25T16:56:40.463Z,15.21
2023-03-25T16:59:24.784Z,14.74
2023-03-25T17:01:55.057Z,14.92
2023-03-25T17:04:27.613Z,14.85
2023-03-25T17:07:01.049Z,15.02
2023-03-25T17:09:34.402Z,14.95
2023-03-25T17:12:06.132Z,15.01
2023-03-25T17:14:37.221Z,15.02
2023-03-25T17:17:22.132Z,14.95
2023-03-25T17:19:51.582Z,14.98
2023-03-25T17:22:28.217Z,14.79
2023-03-25T17:25:12.310Z,14.78
2023-03-25T17:27:40.680Z,14.69
2023-03-25T17:30:33.630Z,14.53
2023-03-25T17:33:18.078Z,14.55
2023-03-25T17:35:54.325Z,14.41
2023-03-25T17:38:27.731Z,14.30
2023-03-25T17:41:01.520Z,14.12
2023-03-25T17:43:31.995Z,13.86
2023-03-25T17:46:00.649Z,13.84
2023-03-25T17:48:28.083Z,13.74
2023-03-25T17:50:56.993Z,13.62
2023-03-25T17:53:24.849Z,13.52
2023-03-25T17:55:52.143Z,13.46
2023-03-25T17:58:21.015Z,13.44
2023-03-25T18:00:53.085Z,13.32
2023-03-25T18:03:23.314Z,13.28
2023-03-25T18:05:55.704Z,13.32
2023-03-25T18:08:28.018Z,13.27
2023-03-25T18:10:56.307Z,13.24
2023-03-25T18:13:26.720Z,13.23
2023-03-25T18:15:53.985Z,13.30
2023-03-25T18:18:26.196Z,13.11
2023-03-25T18:20:56.005Z,12.86
2023-03-25T18:23:23.629Z,12.87
2023-03-25T18:25:50.647Z,12.80
2023-03-25T18:28:17.664Z,12.78
2023-03-25T18:30:54.117Z,12.99
2023-03-25T18:33:21.416Z,13.05
2023-03-25T18:35:48.158Z,13.02
2023-03-25T18:38:17.846Z,12.97
2023-03-25T18:40:44.958Z,12.94
2023-03-25T18:43:11.575Z,12.97
2023-03-25T18:45:38.291Z,12.98
2023-03-25T18:48:05.642Z,12.89
2023-03-25T18:50:36.556Z,12.90
2023-03-25T18:53:04.954Z,12.93
2023-03-25T18:55:33.071Z,12.88
2023-03-25T18:58:04.348Z,12.82
2023-03-25T19:00:40.861Z,12.83
2023-03-25T19:03:07.490Z,12.79
2023-03-25T19:05:34.071Z,12.71
2023-03-25T19:08:01.008Z,12.59
2023-03-25T19:10:30.390Z,12.65
2023-03-25T19:12:57.426Z,12.57
2023-03-25T19:15:27.640Z,12.53
2023-03-25T19:17:58.435Z,12.49
2023-03-25T19:20:29.363Z,12.27
2023-03-25T19:22:56.563Z,12.13
2023-03-25T19:25:23.127Z,12.03
2023-03-25T19:27:50.108Z,12.20
2023-03-25T19:30:22.156Z,12.38
2023-03-25T19:32:51.785Z,12.46
2023-03-25T19:35:20.137Z,12.49
2023-03-25T19:37:56.239Z,12.54
2023-03-25T19:40:26.284Z,12.48
2023-03-25T19:42:54.992Z,12.38
2023-03-25T19:45:22.743Z,12.37
2023-03-25T19:47:49.858Z,12.39
2023-03-25T19:50:19.116Z,12.42
2023-03-25T19:52:49.659Z,12.40
2023-03-25T19:55:16.631Z,12.32
2023-03-25T19:57:44.823Z,12.20
2023-03-25T20:00:15.627Z,12.26
2023-03-25T20:02:44.156Z,12.16
2023-03-25T20:05:12.271Z,12.05
2023-03-25T20:07:40.571Z,11.84
2023-03-25T20:10:19.086Z,11.76
2023-03-25T20:12:48.089Z,11.35
2023-03-25T20:15:16.639Z,11.15
2023-03-25T20:17:43.668Z,11.40
2023-03-25T20:20:20.535Z,11.51
2023-03-25T20:22:48.363Z,11.39
2023-03-25T20:25:16.211Z,11.37
2023-03-25T20:27:43.375Z,11.56
2023-03-25T20:30:28.957Z,11.74
2023-03-25T20:33:24.199Z,11.75
2023-03-25T20:35:56.369Z,11.86
2023-03-25T20:38:23.369Z,11.70
2023-03-25T20:40:54.316Z,11.83
2023-03-25T20:43:21.004Z,11.92
2023-03-25T20:45:47.542Z,11.85
2023-03-25T20:48:14.220Z,11.95
2023-03-25T20:50:40.877Z,11.93
2023-03-25T20:53:07.428Z,11.92
2023-03-25T20:55:34.057Z,11.92
2023-03-25T20:58:00.860Z,11.90
2023-03-25T21:00:28.071Z,11.80
2023-03-25T21:02:55.569Z,11.78
2023-03-25T21:05:22.364Z,11.71
2023-03-25T21:07:49.600Z,11.51
2023-03-25T21:10:16.448Z,11.26
2023-03-25T21:12:44.664Z,11.41
2023-03-25T21:15:14.899Z,11.44
2023-03-25T21:17:42.163Z,11.39
2023-03-25T21:20:09.861Z,11.32
2023-03-25T21:22:43.065Z,11.37
2023-03-25T21:25:11.296Z,11.13
2023-03-25T21:27:39.524Z,11.28
2023-03-25T21:30:09.664Z,11.21
2023-03-25T21:32:37.410Z,11.19
2023-03-25T21:35:53.567Z,11.12
2023-03-25T21:38:48.940Z,11.12
2023-03-25T21:41:15.546Z,10.92
2023-03-25T21:43:42.406Z,10.85
2023-03-25T21:46:10.327Z,10.89
2023-03-25T21:51:20.333Z,10.80
2023-03-25T21:53:47.499Z,10.65
2023-03-25T21:56:17.883Z,10.72
2023-03-25T21:58:45.218Z,10.51
2023-03-25T22:01:14.802Z,10.43
2023-03-25T22:03:45.415Z,10.79
2023-03-25T22:06:18.228Z,10.73
2023-03-25T22:08:45.813Z,10.67
2023-03-25T22:11:21.077Z,10.42
2023-03-25T22:13:48.979Z,10.71
2023-03-25T22:16:17.448Z,10.50
2023-03-25T22:18:44.510Z,10.67
2023-03-25T22:21:24.030Z,10.70
2023-03-25T22:23:54.883Z,10.41
2023-03-25T22:26:23.237Z,10.38
2023-03-25T22:29:00.593Z,10.73
2023-03-25T22:31:32.516Z,10.66
2023-03-25T22:34:10.843Z,10.79
2023-03-25T22:36:49.670Z,10.77
2023-03-25T22:39:21.050Z,10.48
2023-03-25T22:41:47.684Z,10.58
2023-03-25T22:44:17.033Z,10.72
2023-03-25T22:46:44.803Z,10.90
2023-03-25T22:49:11.459Z,10.67
2023-03-25T22:51:38.014Z,10.59
2023-03-25T22:54:05.350Z,10.79
2023-03-25T22:56:35.345Z,10.62
2023-03-25T22:59:04.106Z,10.42
2023-03-25T23:01:31.014Z,10.33
2023-03-25T23:06:35.512Z,10.76
2023-03-25T23:09:04.829Z,10.77
2023-03-25T23:11:31.737Z,10.65
2023-03-25T23:14:06.725Z,10.77
2023-03-25T23:16:34.781Z,10.89
2023-03-25T23:19:10.037Z,10.81
2023-03-25T23:21:51.763Z,10.80
2023-03-25T23:24:38.024Z,10.51
2023-03-25T23:27:07.312Z,10.38
2023-03-25T23:29:39.222Z,10.38
2023-03-25T23:32:07.348Z,10.32
2023-03-25T23:34:40.288Z,10.53
2023-03-25T23:37:07.692Z,10.04
2023-03-25T23:39:35.149Z,10.37
2023-03-25T23:42:13.612Z,10.21
2023-03-25T23:44:45.658Z,9.65
2023-03-25T23:47:12.250Z,9.78
2023-03-25T23:49:38.896Z,9.86
2023-03-25T23:52:11.123Z,9.71
2023-03-25T23:54:39.230Z,9.82
2023-03-25T23:57:06.063Z,10.04
2023-03-25T23:59:47.948Z,9.99
